Time;durP1;ratioP1;P1;durP2;ratioP2;P2;SDS_P1;SDS_P2;PMS_P1;PMS_P2;Temp;Humidity;BMP_temperature;BMP_pressure;BME280_temperature;BME280_humidity;BME280_pressure;Samples;Min_cycle;Max_cycle;Signal;HPM_P1;HPM_P2
2022/12/04 00:00:23;;;;;;;17.70;12.70;;;2.60;90.30;;;2.28;81.78;97770.75;5031643;28;20985;-69
2022/12/04 00:02:51;;;;;;;16.97;12.60;;;2.60;90.20;;;2.42;81.61;97772.72;5028888;28;20927;-74
2022/12/04 00:05:18;;;;;;;17.37;12.40;;;2.70;90.50;;;2.37;81.84;97767.06;5036270;28;20458;-72
2022/12/04 00:07:46;;;;;;;15.93;11.63;;;2.70;90.40;;;2.11;82.41;97749.44;5022054;28;20445;-70
2022/12/04 00:10:14;;;;;;;16.90;11.73;;;2.60;90.00;;;2.23;82.51;97760.56;5046685;28;20961;-73
2022/12/04 00:12:41;;;;;;;13.93;11.33;;;2.60;90.50;;;2.19;82.18;97744.06;5026899;28;20481;-70
2022/12/04 00:15:10;;;;;;;17.13;12.63;;;2.60;90.30;;;2.07;82.86;97745.44;5028170;28;20464;-74
2022/12/04 00:17:38;;;;;;;16.70;12.93;;;2.50;90.60;;;2.02;83.33;97737.09;5028356;28;20552;-69
2022/12/04 00:20:07;;;;;;;16.00;12.00;;;2.50;90.60;;;2.01;83.54;97720.28;5037556;28;20462;-72
2022/12/04 00:22:35;;;;;;;18.33;12.77;;;2.50;91.10;;;2.04;83.26;97719.09;5029333;28;20461;-72
2022/12/04 00:25:03;;;;;;;18.77;13.63;;;2.50;91.30;;;2.15;83.27;97742.75;5020812;28;20952;-70
2022/12/04 00:27:31;;;;;;;15.33;12.03;;;2.50;91.40;;;2.15;82.81;97736.63;5046107;28;20455;-76
2022/12/04 00:29:58;;;;;;;15.00;11.40;;;2.60;90.90;;;2.28;82.49;97747.59;5042684;28;20460;-73
2022/12/04 00:32:25;;;;;;;15.43;12.37;;;2.60;91.10;;;2.24;82.37;97739.09;5037159;28;21852;-69
2022/12/04 00:34:53;;;;;;;20.07;12.57;;;2.60;90.90;;;2.19;82.36;97744.06;5024660;28;20462;-71
2022/12/04 00:37:20;;;;;;;16.13;11.93;;;2.60;91.00;;;2.33;82.75;97739.91;5028222;28;20458;-75
2022/12/04 00:39:47;;;;;;;17.50;12.67;;;2.60;91.20;;;2.20;82.89;97732.44;5027688;28;20472;-76
2022/12/04 00:42:16;;;;;;;17.63;13.50;;;2.70;90.70;;;2.15;83.42;97725.94;5044640;28;20456;-72
2022/12/04 00:44:43;;;;;;;16.70;12.10;;;2.60;90.90;;;2.06;83.21;97727.78;5027771;28;20475;-69
2022/12/04 00:47:10;;;;;;;18.00;12.50;;;2.60;90.90;;;2.01;83.63;97730.97;5020865;28;20461;-70
2022/12/04 00:49:37;;;;;;;14.67;10.80;;;2.60;91.20;;;1.92;84.41;97719.47;5022890;28;20451;-76
2022/12/04 00:52:05;;;;;;;18.57;14.37;;;2.50;91.50;;;1.95;84.05;97726.28;5028639;28;20935;-75
2022/12/04 00:54:32;;;;;;;16.17;11.20;;;2.50;91.50;;;2.22;83.75;97719.78;5043927;28;20445;-71
2022/12/04 00:56:59;;;;;;;16.63;11.87;;;2.60;91.80;;;2.23;82.75;97707.25;5028843;28;20441;-73
2022/12/04 00:59:28;;;;;;;17.63;11.63;;;2.60;91.50;;;2.25;83.45;97711.44;5029749;28;20471;-72
2022/12/04 01:01:55;;;;;;;17.27;13.00;;;2.60;91.40;;;2.22;83.60;97694.94;5027433;28;20471;-70
2022/12/04 01:04:22;;;;;;;17.10;11.43;;;2.60;91.20;;;2.36;83.09;97696.09;5026480;28;20453;-70
2022/12/04 01:06:50;;;;;;;15.77;11.27;;;2.70;91.30;;;2.29;83.30;97690.59;5042450;28;20927;-78
2022/12/04 01:09:17;;;;;;;15.07;12.13;;;2.60;91.40;;;2.37;83.20;97695.09;5024825;28;20460;-72
2022/12/04 01:11:45;;;;;;;16.07;12.20;;;2.70;91.30;;;2.44;82.30;97698.72;5027523;28;20583;-71
2022/12/04 01:14:12;;;;;;;18.83;12.93;;;2.70;91.30;;;2.24;83.38;97703.59;5027108;28;20805;-74
2022/12/04 01:16:40;;;;;;;17.00;11.97;;;2.60;91.40;;;2.36;83.03;97707.56;5022000;28;20461;-80
2022/12/04 01:19:11;;;;;;;15.13;11.87;;;2.60;91.70;;;2.19;82.68;97648.13;5022458;28;20472;-69
2022/12/04 01:21:39;;;;;;;18.70;12.50;;;2.70;91.90;;;2.43;82.78;97709.53;5029738;28;20545;-77
2022/12/04 01:24:08;;;;;;;17.30;12.10;;;2.70;90.90;;;2.42;82.85;97708.72;5043766;28;20484;-77
2022/12/04 01:26:35;;;;;;;17.03;12.17;;;2.80;91.00;;;2.17;83.61;97703.44;5041679;28;20458;-74
2022/12/04 01:29:03;;;;;;;17.80;13.27;;;2.70;91.00;;;2.25;83.39;97721.25;5028239;28;20480;-70
2022/12/04 01:31:30;;;;;;;14.63;12.10;;;2.70;91.50;;;2.16;83.98;97692.97;5020719;28;20953;-70
2022/12/04 01:33:59;;;;;;;17.20;11.73;;;2.60;91.60;;;2.14;83.56;97682.47;5022260;28;20470;-78
2022/12/04 01:36:28;;;;;;;15.60;13.03;;;2.70;91.80;;;2.06;84.06;97706.47;5024039;28;20504;-76
2022/12/04 01:38:56;;;;;;;17.30;12.70;;;2.60;91.50;;;2.15;84.41;97708.09;5025600;28;20469;-73
2022/12/04 01:41:27;;;;;;;19.73;12.93;;;2.60;91.90;;;2.20;84.36;97705.78;5036368;28;20466;-72
2022/12/04 01:44:16;;;;;;;18.00;12.40;;;2.60;92.00;;;2.26;83.81;97699.75;5040354;28;20449;-82
2022/12/04 01:46:45;;;;;;;16.70;12.50;;;2.70;91.70;;;2.13;84.08;97699.44;5034209;28;20963;-70
2022/12/04 01:49:21;;;;;;;16.23;12.10;;;2.60;91.60;;;2.25;84.16;97700.78;5017257;28;20445;-71
2022/12/04 01:51:53;;;;;;;22.47;13.30;;;2.70;91.70;;;2.42;83.06;97692.72;5026871;28;20451;-69
2022/12/04 01:54:27;;;;;;;16.63;12.00;;;2.70;92.00;;;2.35;82.81;97662.41;5022252;28;20468;-76
2022/12/04 01:57:01;;;;;;;17.87;11.97;;;2.70;91.80;;;2.34;83.14;97671.41;5025442;28;20456;-72
2022/12/04 01:59:36;;;;;;;16.00;12.23;;;2.80;91.50;;;2.30;84.03;97686.09;5042695;28;20480;-74
2022/12/04 02:02:08;;;;;;;17.10;12.27;;;2.80;91.50;;;2.33;83.17;97680.41;5025603;28;20816;-71
2022/12/04 02:04:37;;;;;;;16.27;12.53;;;2.80;91.40;;;2.24;83.67;97677.78;5027202;28;20460;-76
2022/12/04 02:07:04;;;;;;;15.13;12.30;;;2.80;91.30;;;2.34;83.43;97666.06;5026813;28;20540;-71
2022/12/04 02:09:33;;;;;;;17.30;12.30;;;2.80;91.50;;;2.03;83.30;97613.50;5025574;28;20462;-69
2022/12/04 02:12:10;;;;;;;16.10;11.53;;;2.80;91.50;;;2.41;83.26;97693.72;5025888;28;20472;-69
2022/12/04 02:14:50;;;;;;;16.73;12.83;;;2.80;91.40;;;2.53;83.24;97692.38;5034825;28;20464;-70
2022/12/04 02:17:28;;;;;;;18.87;12.43;;;2.80;91.40;;;2.60;82.99;97697.00;5040714;28;20508;-76
2022/12/04 02:20:15;;;;;;;17.60;12.27;;;2.80;91.30;;;2.45;83.41;97697.72;5028440;28;20487;-74
2022/12/04 02:23:34;;;;;;;16.47;12.30;;;2.80;91.20;;;2.55;83.20;97698.34;5024398;28;21127;-73
2022/12/04 02:26:19;;;;;;;19.00;13.53;;;2.90;91.20;;;2.67;82.54;97712.13;4965553;28;20448;-73
2022/12/04 02:28:53;;;;;;;17.30;11.33;;;2.90;91.30;;;2.65;82.72;97705.31;5017434;28;20461;-71
2022/12/04 02:31:27;;;;;;;16.53;12.00;;;2.90;91.40;;;2.80;82.21;97708.91;5024276;28;20523;-71
2022/12/04 02:34:02;;;;;;;17.27;12.63;;;3.00;91.50;;;2.73;82.24;97702.63;5018456;28;20670;-79
2022/12/04 02:36:35;;;;;;;18.53;12.67;;;3.00;91.00;;;2.59;83.19;97706.00;5025296;28;20461;-72
2022/12/04 02:39:10;;;;;;;14.87;11.67;;;3.00;91.00;;;2.44;82.96;97693.38;5025417;28;20458;-71
2022/12/04 02:41:41;;;;;;;18.20;13.80;;;3.00;91.00;;;2.45;83.69;97705.72;5020942;28;20453;-69
2022/12/04 02:44:16;;;;;;;19.17;13.40;;;2.90;91.00;;;2.45;83.53;97694.22;5024006;28;20469;-68
2022/12/04 02:46:47;;;;;;;15.20;12.37;;;2.90;91.40;;;2.72;83.13;97703.63;5025277;28;20464;-69
2022/12/04 02:49:20;;;;;;;19.10;13.93;;;3.00;91.50;;;2.32;83.01;97676.94;5041157;28;20462;-72
2022/12/04 02:51:48;;;;;;;16.33;12.50;;;2.90;91.20;;;2.56;83.24;97693.84;5040568;28;20454;-77
2022/12/04 02:54:23;;;;;;;17.97;13.37;;;3.00;91.10;;;2.51;83.32;97686.38;5023748;28;20499;-77
2022/12/04 02:56:52;;;;;;;16.37;12.90;;;3.00;91.10;;;2.48;83.80;97681.34;5025118;28;20823;-75
2022/12/04 02:59:27;;;;;;;15.40;12.20;;;2.90;91.30;;;2.37;83.84;97669.22;5043804;28;20531;-72
2022/12/04 03:02:00;;;;;;;17.43;12.10;;;2.90;91.30;;;2.60;83.88;97691.66;5027054;28;20459;-67
2022/12/04 03:04:30;;;;;;;15.47;12.43;;;2.90;91.60;;;2.73;83.36;97686.59;5026844;28;20913;-78
2022/12/04 03:07:04;;;;;;;18.80;12.63;;;3.00;92.00;;;2.80;82.98;97698.22;5026154;28;20540;-72
2022/12/04 03:09:37;;;;;;;15.17;11.97;;;3.00;91.60;;;2.72;82.82;97684.94;5027952;28;20961;-75
2022/12/04 03:12:12;;;;;;;16.57;12.00;;;3.00;91.20;;;2.60;82.85;97673.00;5027592;28;20820;-79
2022/12/04 03:14:44;;;;;;;16.57;11.93;;;3.00;91.30;;;2.42;82.43;97626.06;5025316;28;20461;-73
2022/12/04 03:17:17;;;;;;;16.27;11.73;;;3.00;91.30;;;2.66;83.21;97677.66;5043029;28;20703;-82
2022/12/04 03:19:52;;;;;;;14.67;11.53;;;3.00;91.60;;;2.66;83.63;97661.66;5042328;28;20471;-78
2022/12/04 03:22:22;;;;;;;16.73;12.53;;;3.00;91.70;;;2.54;82.57;97638.00;5047165;28;20487;-75
2022/12/04 03:24:52;;;;;;;15.03;11.77;;;3.00;91.40;;;2.76;83.18;97658.75;5028710;28;20458;-74
2022/12/04 03:27:30;;;;;;;15.50;11.37;;;3.10;91.30;;;2.64;82.74;97658.28;5028055;28;20457;-74
2022/12/04 03:30:07;;;;;;;15.50;11.57;;;3.00;91.10;;;2.72;83.63;97652.09;5028926;28;20880;-69
2022/12/04 03:32:41;;;;;;;14.60;10.80;;;3.00;91.40;;;2.67;83.32;97656.13;5044104;28;20933;-73
2022/12/04 03:35:14;;;;;;;16.23;12.27;;;3.00;91.40;;;2.69;83.11;97650.63;5027661;28;20984;-74
2022/12/04 03:37:50;;;;;;;14.63;10.53;;;3.00;91.90;;;2.55;83.54;97642.34;5041271;28;20473;-68
2022/12/04 03:40:25;;;;;;;15.30;11.07;;;3.00;91.40;;;2.67;83.41;97645.44;5027181;28;20957;-69
2022/12/04 03:43:09;;;;;;;14.60;11.30;;;3.00;91.40;;;2.76;82.37;97642.75;5046135;28;20586;-72
2022/12/04 03:45:44;;;;;;;14.53;10.43;;;3.10;91.30;;;2.77;82.83;97639.88;5030495;28;20607;-78
2022/12/04 03:48:19;;;;;;;11.90;10.10;;;3.10;91.40;;;2.83;82.97;97643.69;5029186;28;20455;-70
2022/12/04 03:50:53;;;;;;;13.10;10.73;;;3.10;91.40;;;2.75;82.93;97641.09;5027991;28;20802;-71
2022/12/04 03:53:29;;;;;;;15.60;12.10;;;3.10;91.30;;;2.75;83.41;97641.91;5024980;28;20455;-69
2022/12/04 03:56:03;;;;;;;16.57;11.60;;;3.00;91.50;;;2.79;83.02;97640.53;5021837;28;21965;-68
2022/12/04 03:58:34;;;;;;;14.63;10.70;;;3.10;91.30;;;2.76;82.47;97637.41;5026593;28;20460;-72
2022/12/04 04:01:07;;;;;;;15.70;11.97;;;3.10;91.20;;;2.72;82.53;97639.59;5030886;28;20519;-73
2022/12/04 04:03:39;;;;;;;13.13;10.43;;;3.10;91.20;;;2.47;83.67;97609.53;5023592;28;20451;-69
2022/12/04 04:06:12;;;;;;;15.43;11.87;;;3.00;91.40;;;2.53;83.98;97639.03;5023414;28;20587;-74
2022/12/04 04:08:45;;;;;;;14.73;11.60;;;3.00;91.50;;;2.49;83.60;97618.19;5022192;28;20488;-73
2022/12/04 04:11:20;;;;;;;14.50;11.80;;;3.00;91.30;;;2.53;84.43;97639.03;5029903;28;20453;-73
2022/12/04 04:25:23;;;;;;;13.43;10.77;;;3.00;92.00;;;2.71;83.90;97619.25;5009779;28;20454;-75
2022/12/04 04:27:53;;;;;;;12.73;10.10;;;3.00;91.80;;;2.83;83.56;97625.03;5038016;28;20461;-75
2022/12/04 04:30:20;;;;;;;14.57;11.60;;;3.00;92.00;;;2.85;83.56;97620.34;5037974;28;20505;-75
2022/12/04 04:32:56;;;;;;;15.67;11.87;;;3.10;91.90;;;2.66;83.88;97626.97;5037857;28;20510;-75
2022/12/04 04:35:33;;;;;;;13.70;9.83;;;3.00;91.50;;;2.78;83.23;97617.53;5037439;28;20465;-72
2022/12/04 04:38:09;;;;;;;14.07;11.73;;;3.10;91.80;;;2.76;82.79;97610.72;5051444;28;20457;-69
2022/12/04 04:40:42;;;;;;;15.67;11.67;;;3.10;91.80;;;2.80;83.34;97620.84;5041651;28;20480;-76
2022/12/04 04:43:16;;;;;;;17.57;11.57;;;3.10;91.60;;;2.57;84.01;97623.47;5050963;28;20462;-76
2022/12/04 04:45:47;;;;;;;17.30;12.33;;;3.10;91.60;;;2.76;83.53;97627.56;5037827;28;20514;-73
2022/12/04 04:48:22;;;;;;;14.63;11.70;;;3.10;92.00;;;2.79;83.42;97626.38;5038316;28;20457;-74
2022/12/04 04:50:50;;;;;;;16.30;11.50;;;3.10;91.90;;;2.75;83.67;97620.56;5035579;28;20498;-75
2022/12/04 04:53:22;;;;;;;13.90;10.77;;;3.10;91.60;;;2.83;83.16;97623.19;5036843;28;20452;-70
2022/12/04 04:55:50;;;;;;;16.70;12.10;;;3.10;92.00;;;2.89;83.17;97626.16;5032376;28;20465;-73
2022/12/04 04:58:20;;;;;;;13.17;10.43;;;3.10;92.00;;;2.79;83.69;97635.22;5034129;28;20797;-77
2022/12/04 05:00:56;;;;;;;12.83;10.70;;;3.10;91.60;;;2.30;83.53;97561.63;5029572;28;20972;-76
2022/12/04 05:03:25;;;;;;;16.00;12.10;;;3.10;91.70;;;2.82;83.26;97642.03;5043566;28;20594;-69
2022/12/04 05:05:52;;;;;;;13.00;10.30;;;3.10;91.50;;;2.86;82.91;97654.00;5024683;28;20454;-70
2022/12/04 05:08:19;;;;;;;13.70;10.77;;;3.20;91.40;;;2.72;83.53;97652.09;5031811;28;21203;-76
2022/12/04 05:10:46;;;;;;;14.17;11.70;;;3.10;91.40;;;2.67;84.28;97652.63;5020634;28;20518;-75
2022/12/04 05:13:16;;;;;;;15.13;11.20;;;3.10;91.70;;;2.76;83.62;97648.09;5023912;28;20814;-74
2022/12/04 05:15:43;;;;;;;13.67;11.53;;;3.10;91.70;;;2.72;83.61;97639.59;5039188;28;20456;-68
2022/12/04 05:18:11;;;;;;;15.27;11.70;;;3.20;91.80;;;2.90;82.78;97655.34;5039877;28;20450;-71
2022/12/04 05:20:39;;;;;;;15.70;12.30;;;3.20;91.50;;;2.63;84.03;97644.13;5024291;28;20485;-79
2022/12/04 05:23:07;;;;;;;14.83;11.33;;;3.10;91.80;;;2.78;83.63;97646.88;5029140;28;20551;-74
2022/12/04 05:25:34;;;;;;;12.77;10.23;;;3.10;91.90;;;2.87;83.75;97649.53;5029121;28;20491;-75
2022/12/04 05:28:01;;;;;;;16.77;11.50;;;3.20;92.20;;;2.86;83.48;97647.88;5021896;28;20457;-74
2022/12/04 05:30:28;;;;;;;15.43;10.60;;;3.20;92.00;;;2.89;83.61;97642.16;5026230;28;20453;-70
2022/12/04 05:32:55;;;;;;;15.13;11.70;;;3.10;91.90;;;2.94;83.83;97645.97;5025082;28;20794;-71
2022/12/04 05:35:23;;;;;;;14.00;11.40;;;3.10;92.20;;;2.82;82.82;97645.56;5022426;28;20476;-77
2022/12/04 05:37:51;;;;;;;15.37;11.10;;;3.20;91.60;;;2.72;83.57;97655.59;5031721;28;20950;-68
2022/12/04 05:40:19;;;;;;;13.63;10.17;;;3.20;91.60;;;2.45;84.56;97644.38;5029034;28;20496;-75
2022/12/04 05:42:46;;;;;;;14.93;10.80;;;3.10;91.80;;;2.57;84.97;97665.34;5028571;28;20454;-70
2022/12/04 05:45:14;;;;;;;14.00;11.50;;;3.10;92.20;;;2.80;84.33;97654.72;5041521;28;20457;-76
2022/12/04 05:47:44;;;;;;;14.43;10.70;;;3.10;92.40;;;2.91;83.74;97650.84;5042741;28;20460;-74
2022/12/04 05:50:13;;;;;;;12.00;10.40;;;3.20;92.50;;;3.01;83.35;97645.25;5025797;28;20929;-72
2022/12/04 05:52:40;;;;;;;13.27;10.30;;;3.20;92.00;;;2.89;83.64;97661.69;5044643;28;20476;-70
2022/12/04 05:55:09;;;;;;;15.50;11.00;;;3.20;91.90;;;2.89;83.76;97658.19;5026499;28;20467;-72
2022/12/04 05:57:36;;;;;;;17.70;11.73;;;3.20;91.60;;;2.96;83.30;97653.81;5029581;28;20443;-69
2022/12/04 06:00:06;;;;;;;16.37;11.87;;;3.20;92.20;;;3.06;83.44;97658.94;5028253;28;20906;-75
2022/12/04 06:02:34;;;;;;;14.17;11.07;;;3.30;91.60;;;3.09;82.87;97648.72;5024533;28;20446;-69
2022/12/04 06:05:01;;;;;;;13.13;9.90;;;3.40;91.50;;;3.06;82.38;97667.75;5041151;28;20442;-69
2022/12/04 06:07:28;;;;;;;14.43;11.30;;;3.40;91.20;;;3.04;82.33;97648.41;5030895;28;20445;-77
2022/12/04 06:09:55;;;;;;;11.07;9.73;;;3.40;91.50;;;3.14;82.68;97668.72;5042434;28;20449;-73
2022/12/04 06:12:24;;;;;;;11.90;9.80;;;3.40;91.20;;;3.07;82.84;97666.75;5029667;28;20465;-68
2022/12/04 06:14:51;;;;;;;15.47;11.40;;;3.30;91.30;;;3.07;83.01;97672.09;5024196;28;20445;-73
2022/12/04 06:17:19;;;;;;;13.00;10.10;;;3.30;91.40;;;3.04;82.37;97676.97;5024557;28;20960;-77
2022/12/04 06:19:46;;;;;;;12.80;10.70;;;3.40;91.20;;;2.87;83.33;97660.19;5036128;28;20446;-79
2022/12/04 06:22:13;;;;;;;15.53;11.40;;;3.30;91.20;;;3.01;82.73;97672.81;5020753;28;20470;-70
2022/12/04 06:24:40;;;;;;;12.50;9.90;;;3.30;91.40;;;2.96;83.28;97669.84;5018490;28;20953;-68
2022/12/04 06:27:08;;;;;;;14.10;11.27;;;3.30;91.30;;;2.93;83.49;97675.50;5025489;28;20458;-70
2022/12/04 06:29:39;;;;;;;13.83;11.40;;;3.30;91.30;;;2.96;83.57;97678.66;5008586;28;20787;-75
2022/12/04 06:32:06;;;;;;;14.97;11.37;;;3.30;91.50;;;2.82;83.03;97661.56;5022847;28;20815;-71
2022/12/04 06:34:34;;;;;;;13.83;10.47;;;3.30;91.70;;;3.02;82.93;97668.28;5024309;28;20464;-69
2022/12/04 06:37:01;;;;;;;13.90;10.77;;;3.30;91.70;;;3.05;82.88;97671.44;5040547;28;20487;-70
2022/12/04 06:39:29;;;;;;;14.37;10.90;;;3.30;91.60;;;2.94;83.99;97661.16;5026788;28;20881;-71
2022/12/04 06:41:56;;;;;;;14.13;11.20;;;3.30;91.80;;;2.92;83.24;97665.84;5026465;28;20483;-70
2022/12/04 06:44:23;;;;;;;13.73;11.77;;;3.30;91.30;;;2.85;83.84;97662.22;5038358;28;20447;-72
2022/12/04 06:46:51;;;;;;;14.87;10.90;;;3.30;91.50;;;2.95;84.01;97663.66;5025033;28;20477;-69
2022/12/04 06:49:21;;;;;;;13.23;10.77;;;3.30;91.70;;;3.13;83.14;97664.41;5028333;28;20732;-72
2022/12/04 06:51:48;;;;;;;13.30;11.33;;;3.40;91.90;;;3.01;83.25;97669.28;5024491;28;20449;-73
2022/12/04 06:54:16;;;;;;;13.20;10.97;;;3.40;91.60;;;3.14;83.66;97679.41;5020517;28;20523;-70
2022/12/04 06:56:43;;;;;;;13.30;11.20;;;3.40;92.00;;;2.96;83.61;97678.66;5038447;28;21044;-69
2022/12/04 06:59:11;;;;;;;14.80;11.63;;;3.40;91.40;;;3.14;82.82;97666.06;5032039;28;20465;-71
2022/12/04 07:01:38;;;;;;;14.93;11.23;;;3.40;91.50;;;3.17;83.36;97676.38;5037597;28;20479;-70
2022/12/04 07:04:07;;;;;;;12.93;11.17;;;3.50;91.50;;;3.23;82.19;97678.34;5018449;28;20758;-69
2022/12/04 07:06:36;;;;;;;15.10;11.20;;;3.50;91.60;;;3.36;82.12;97683.91;5023168;28;20465;-72
2022/12/04 07:09:10;;;;;;;13.73;11.50;;;3.50;91.50;;;3.32;82.28;97669.28;5045498;28;20493;-71
2022/12/04 07:11:37;;;;;;;13.40;10.33;;;3.60;91.20;;;3.46;82.06;97675.66;5024039;28;20446;-71
2022/12/04 07:14:05;;;;;;;14.07;10.77;;;3.60;91.00;;;2.69;81.26;97549.25;5022386;28;20834;-70
2022/12/04 07:16:32;;;;;;;14.00;10.93;;;3.60;90.80;;;3.21;82.03;97624.28;5025503;28;20465;-72
2022/12/04 07:19:00;;;;;;;13.70;10.63;;;3.60;91.10;;;3.50;81.67;97652.97;5028471;28;20469;-72
2022/12/04 07:21:30;;;;;;;12.93;11.00;;;3.70;90.70;;;3.58;80.93;97646.72;5017466;28;20474;-73
2022/12/04 07:24:00;;;;;;;11.20;10.00;;;3.70;90.50;;;3.58;81.39;97635.19;5026006;28;20453;-73
2022/12/04 07:26:30;;;;;;;12.20;10.70;;;3.80;90.40;;;3.38;81.65;97636.50;5040873;28;20944;-71
2022/12/04 07:28:58;;;;;;;14.53;11.20;;;3.70;90.30;;;3.59;81.27;97631.50;5022061;28;20507;-70
2022/12/04 07:31:28;;;;;;;12.27;9.70;;;3.70;90.60;;;3.49;81.80;97621.91;5039483;28;20616;-72
2022/12/04 07:33:56;;;;;;;13.40;10.53;;;3.70;90.70;;;3.48;82.26;97620.22;5024706;28;20496;-73
2022/12/04 07:36:25;;;;;;;12.33;9.50;;;3.70;90.70;;;3.46;81.51;97626.78;5026421;28;20472;-69
2022/12/04 07:38:56;;;;;;;11.90;9.80;;;3.70;90.80;;;3.61;81.81;97627.66;5020721;28;20519;-73
2022/12/04 07:41:24;;;;;;;11.03;9.63;;;3.80;90.80;;;3.47;81.49;97613.22;5020241;28;21138;-69
2022/12/04 07:43:52;;;;;;;12.47;9.67;;;3.80;90.50;;;3.63;81.89;97622.09;5036849;28;20464;-70
2022/12/04 07:46:21;;;;;;;10.93;9.77;;;3.80;90.50;;;3.64;81.56;97613.06;5034294;28;20457;-73
2022/12/04 07:48:49;;;;;;;11.10;9.60;;;3.80;90.50;;;3.49;81.64;97605.03;5025052;28;21011;-69
2022/12/04 07:51:18;;;;;;;11.27;10.00;;;3.80;90.20;;;3.64;81.51;97627.28;5036573;28;20467;-72
2022/12/04 07:53:49;;;;;;;12.57;9.40;;;3.80;90.50;;;3.63;81.55;97638.13;5022243;28;20880;-70
2022/12/04 07:56:18;;;;;;;11.37;8.87;;;3.90;90.00;;;3.68;80.96;97633.91;5025276;28;20631;-72
2022/12/04 07:58:46;;;;;;;11.50;9.40;;;3.90;90.30;;;3.67;81.46;97640.28;5019644;28;20462;-72
2022/12/04 08:01:16;;;;;;;12.30;9.70;;;3.90;90.60;;;3.99;80.28;97648.19;5018457;28;20484;-73
2022/12/04 08:03:46;;;;;;;13.20;10.33;;;4.00;90.50;;;3.95;79.94;97642.38;5025499;28;20481;-73
2022/12/04 08:06:13;;;;;;;10.30;9.23;;;4.10;89.80;;;3.76;80.64;97627.66;5033934;28;20507;-69
2022/12/04 08:08:41;;;;;;;10.33;9.07;;;4.10;89.20;;;3.87;79.80;97646.97;5037174;28;20493;-74
2022/12/04 08:11:12;;;;;;;10.90;8.90;;;4.10;88.70;;;3.72;80.78;97646.94;5034851;28;20457;-71
2022/12/04 08:13:41;;;;;;;11.83;9.40;;;4.00;89.20;;;3.75;80.66;97633.22;5020520;28;20477;-73
2022/12/04 08:16:10;;;;;;;11.30;8.90;;;4.10;89.80;;;3.69;80.94;97638.25;5035345;28;20472;-72
2022/12/04 08:18:38;;;;;;;11.80;10.00;;;4.00;89.50;;;3.79;80.67;97655.88;5037332;28;20476;-73
2022/12/04 08:21:09;;;;;;;11.63;9.93;;;4.10;89.40;;;3.76;80.56;97662.41;5023025;28;20568;-71
2022/12/04 08:23:37;;;;;;;9.63;8.63;;;4.00;89.60;;;3.46;81.86;97648.16;5020306;28;20458;-73
2022/12/04 08:26:06;;;;;;;11.63;10.23;;;4.00;90.00;;;3.55;82.14;97649.72;5036321;28;20480;-73
2022/12/04 08:28:34;;;;;;;8.97;8.00;;;4.00;90.30;;;3.65;81.41;97639.63;5022090;28;20934;-72
2022/12/04 08:31:05;;;;;;;11.73;8.97;;;4.00;90.30;;;3.65;81.19;97615.59;5020140;28;20459;-72
2022/12/04 08:33:35;;;;;;;10.57;9.00;;;4.00;90.10;;;3.75;81.04;97646.56;5039546;28;20466;-71
2022/12/04 08:36:06;;;;;;;14.60;9.87;;;4.00;90.00;;;3.39;80.82;97584.75;5018139;28;20462;-72
2022/12/04 08:38:33;;;;;;;12.13;9.07;;;4.10;90.00;;;3.93;80.55;97648.91;5035345;28;20462;-71
2022/12/04 08:41:01;;;;;;;14.00;9.83;;;4.10;90.00;;;3.72;81.64;97652.28;5020182;28;20473;-76
2022/12/04 08:43:28;;;;;;;13.17;10.67;;;4.10;89.20;;;3.67;81.85;97639.47;5019688;28;20976;-69
2022/12/04 08:45:56;;;;;;;11.97;9.10;;;4.10;90.10;;;3.79;81.58;97645.19;5035052;28;20470;-70
2022/12/04 08:48:26;;;;;;;11.03;9.17;;;4.10;90.60;;;3.92;80.66;97655.25;5035171;28;20455;-70
2022/12/04 08:50:55;;;;;;;12.83;10.10;;;4.20;89.60;;;4.00;81.32;97651.66;5017677;28;20935;-71
2022/12/04 08:53:23;;;;;;;13.27;10.50;;;4.20;89.60;;;3.87;81.06;97655.81;5006532;28;21269;-72
2022/12/04 08:55:51;;;;;;;11.80;9.63;;;4.20;89.30;;;3.92;81.41;97650.75;5020176;28;20632;-71
2022/12/04 08:58:19;;;;;;;10.40;9.30;;;4.20;89.20;;;4.05;80.20;97646.63;5018333;28;20469;-71
2022/12/04 09:00:47;;;;;;;13.17;9.93;;;4.30;89.10;;;4.13;79.46;97633.16;5022205;28;20548;-69
2022/12/04 09:03:16;;;;;;;13.20;9.20;;;4.40;88.90;;;4.16;79.91;97651.50;5028886;28;20489;-73
2022/12/04 09:05:45;;;;;;;10.90;9.77;;;4.40;88.50;;;4.11;80.18;97638.69;5022723;28;20464;-75
2022/12/04 09:08:14;;;;;;;10.90;9.80;;;4.50;87.80;;;4.23;79.88;97639.06;5035040;28;20544;-68
2022/12/04 09:10:43;;;;;;;11.30;8.97;;;4.50;87.60;;;4.23;79.93;97655.13;5017062;28;20539;-75
2022/12/04 09:13:10;;;;;;;12.40;9.50;;;4.50;88.40;;;4.37;78.95;97656.13;5036501;28;20446;-67
2022/12/04 09:15:39;;;;;;;11.07;9.30;;;4.60;87.20;;;4.19;79.46;97658.34;5016418;28;20473;-68
2022/12/04 09:18:07;;;;;;;10.57;9.47;;;4.60;86.90;;;4.51;79.62;97673.22;5021550;28;20461;-69
2022/12/04 09:20:35;;;;;;;11.00;8.93;;;4.70;87.60;;;4.40;79.23;97673.66;5019819;28;20463;-68
2022/12/04 09:23:04;;;;;;;10.67;9.13;;;4.70;87.40;;;4.63;78.47;97662.84;5036730;28;20500;-70
2022/12/04 09:25:31;;;;;;;10.20;8.83;;;4.80;87.30;;;4.26;78.75;97605.78;5034493;28;20533;-68
2022/12/04 09:27:58;;;;;;;15.50;9.20;;;4.80;86.70;;;4.44;79.03;97653.53;5023105;28;20475;-68
2022/12/04 09:30:25;;;;;;;13.27;9.70;;;4.70;87.10;;;4.47;78.44;97650.50;5020846;28;20466;-68
2022/12/04 09:32:52;;;;;;;11.50;9.00;;;4.70;86.90;;;4.40;79.68;97641.56;5034958;28;20466;-69
2022/12/04 09:35:20;;;;;;;12.10;10.30;;;4.70;87.20;;;4.51;79.30;97641.09;5024231;28;20928;-69
2022/12/04 09:37:47;;;;;;;14.40;9.70;;;4.70;87.20;;;4.56;79.17;97639.69;5021150;28;20473;-69
2022/12/04 09:40:25;;;;;;;12.73;10.50;;;4.80;87.00;;;4.59;79.29;97625.94;5021224;28;20446;-68
2022/12/04 09:42:59;;;;;;;10.13;9.00;;;4.80;86.90;;;4.84;78.14;97628.31;5043293;28;20466;-69
2022/12/04 09:45:27;;;;;;;11.10;9.17;;;5.00;86.50;;;4.79;78.02;97636.91;5041603;28;20461;-68
2022/12/04 09:47:58;;;;;;;13.20;9.40;;;5.00;86.00;;;4.97;77.05;97623.13;5016603;28;20931;-68
2022/12/04 09:50:34;;;;;;;10.37;8.83;;;5.10;85.90;;;5.17;76.14;97622.47;5035002;28;20452;-69
2022/12/04 09:53:06;;;;;;;8.70;7.80;;;5.30;84.90;;;5.27;76.27;97617.66;5020666;28;21224;-68
2022/12/04 09:55:40;;;;;;;10.83;9.27;;;5.50;84.50;;;5.19;76.12;97593.66;5032799;28;20519;-69
2022/12/04 09:58:14;;;;;;;9.80;8.10;;;5.50;84.30;;;5.07;76.22;97606.72;5025576;28;20561;-70
2022/12/04 10:00:44;;;;;;;10.47;8.77;;;5.50;84.00;;;4.99;76.73;97615.72;5011138;28;21125;-68
2022/12/04 10:03:17;;;;;;;9.67;8.63;;;5.40;84.00;;;5.14;77.14;97612.16;4991069;28;20475;-68
2022/12/04 10:05:57;;;;;;;8.93;8.00;;;5.40;84.40;;;5.25;76.17;97608.97;5007231;28;20454;-68
2022/12/04 10:08:29;;;;;;;10.50;8.50;;;5.50;84.30;;;5.14;76.49;97609.47;5021525;28;20909;-69
2022/12/04 10:11:10;;;;;;;10.57;8.83;;;5.50;84.20;;;5.05;76.74;97614.94;5024126;28;20516;-69
2022/12/04 10:14:05;;;;;;;10.10;8.80;;;5.40;84.00;;;5.27;76.19;97614.97;5042002;28;20477;-68
2022/12/04 10:16:50;;;;;;;12.27;9.67;;;5.50;84.30;;;5.15;76.80;97611.13;5042030;28;20462;-68
2022/12/04 10:19:27;;;;;;;8.73;7.83;;;5.40;84.30;;;5.24;76.55;97594.75;5017351;28;20455;-69
2022/12/04 10:22:05;;;;;;;9.13;7.93;;;5.50;84.50;;;5.27;76.54;97603.41;5027243;28;20825;-68
2022/12/04 10:24:42;;;;;;;10.90;8.73;;;5.60;84.40;;;5.32;76.79;97603.69;5022803;28;20450;-68
2022/12/04 10:27:20;;;;;;;10.63;8.87;;;5.60;84.20;;;5.53;75.99;97602.81;5036017;28;20450;-68
2022/12/04 10:29:53;;;;;;;10.93;9.07;;;5.60;84.10;;;5.64;75.41;97591.56;5025187;28;20454;-68
2022/12/04 10:32:26;;;;;;;10.13;9.13;;;5.80;83.90;;;5.75;75.07;97581.34;5037684;28;20540;-68
2022/12/04 10:34:57;;;;;;;9.00;8.03;;;5.90;83.70;;;5.38;75.55;97581.47;5020549;28;20451;-67
2022/12/04 10:37:25;;;;;;;9.40;7.53;;;5.80;83.30;;;5.04;76.78;97543.66;5025215;28;20505;-68
2022/12/04 10:39:56;;;;;;;10.57;8.73;;;5.70;83.60;;;5.32;76.48;97569.69;5024185;28;20451;-67
2022/12/04 10:42:36;;;;;;;9.33;8.00;;;5.70;84.00;;;5.39;76.52;97567.91;5030930;28;20458;-68
2022/12/04 10:45:05;;;;;;;10.30;8.90;;;5.70;84.00;;;5.64;76.01;97559.41;5025634;28;20461;-69
2022/12/04 10:47:33;;;;;;;9.60;8.53;;;5.80;84.00;;;5.67;75.33;97536.75;5027685;28;20447;-68